Flight Track Log - Related Links

Times and Time Zones

All times are in EDT time to prevent confusion due to time zone crossing. See the AWE771 flight status page for this flight to view local times or setup timezone preferences in your user account.

Time Position Orientation Groundspeed Altitude Reporting Facility
EDT Latitude Longitude Course Direction KTS MPH feet Rate Location/Type
Sun 04:44:32 PM 39.8563 -75.2876 217° Southwest 207 238 3,100  Level FlightAware ADS-B (EGBO)
Sun 04:46:05 PM 39.7893 -75.3542 209° Southwest 217 250 5,100 1,593 Climbing FlightAware ADS-B (EGBO)
Sun 04:46:25 PM 39.7693 -75.3639 193° South 221 254 6,100 2,903 Climbing FlightAware ADS-B (EGBO)
Sun 04:46:36 PM 39.7588 -75.3640 177° South 226 260 6,600 1,935 Climbing FlightAware ADS-B (EGBO)
Sun 04:46:56 PM 39.7409 -75.3627 179° South 261 300 7,100 1,846 Climbing FlightAware ADS-B (EGBO)
Sun 04:47:15 PM 39.7118 -75.3626 181° South 282 325 7,800 2,842 Climbing FlightAware ADS-B (EGBO)
Sun 04:47:34 PM 39.6865 -75.3634 181° South 285 328 8,900 3,059 Climbing FlightAware ADS-B (EGBO)
Sun 04:48:06 PM 39.6469 -75.3649 182° South 302 348 10,400 2,032 Climbing FlightAware ADS-B (EGBO)
Sun 04:48:36 PM 39.5978 -75.3668 182° South 346 398 11,000 1,869 Climbing FlightAware ADS-B (EGBO)
Sun 04:49:07 PM 39.5472 -75.3685 181° South 360 414 12,300 2,754 Climbing FlightAware ADS-B (EGBO)
Sun 04:49:37 PM 39.4966 -75.3703 182° South 368 423 13,800 3,043 Climbing FlightAware ADS-B (EGBO)
Sun 04:50:16 PM 39.4283 -75.3727 182° South 375 432 15,800 2,486 Climbing FlightAware ADS-B (EGBO)
Sun 04:50:47 PM 39.3744 -75.3747 182° South 391 450 16,700 909 Climbing FlightAware ADS-B (EGBO)
Sun 04:51:22 PM 39.3225 -75.3766 182° South 395 455 16,800 73 Climbing FlightAware ADS-B (EGBO)
Sun 04:52:09 PM 39.2543 -75.3790 182° South 397 457 16,800  Level FlightAware ADS-B (EGBO)
Sun 04:52:40 PM 39.1671 -75.3868 187° South 392 451 16,800  Level FlightAware ADS-B (EGBO)
Sun 04:53:11 PM 39.0974 -75.3974 187° South 392 451 16,800  Level FlightAware ADS-B (KWWD)
Sun 04:53:41 PM 39.0433 -75.4056 187° South 391 450 16,800  Level FlightAware ADS-B (KWWD)
Sun 04:54:21 PM 38.9713 -75.4165 187° South 392 451 16,800 1,183 Level FlightAware ADS-B (KWWD)
Sun 04:54:52 PM 38.9160 -75.4249 187° South 392 451 18,200 2,297 Climbing FlightAware ADS-B (KWWD)
Sun 04:56:29 PM 38.7908 -75.4438 187° South 403 464 21,700 2,208 Climbing FlightAware ADS-B (EGBO)
Sun 04:57:16 PM 38.6468 -75.4656 187° South 393 452 23,500 2,268 Climbing FlightAware ADS-B (KWWD)
Sun 04:57:51 PM 38.5777 -75.4759 187° South 421 484 24,800 1,816 Climbing FlightAware ADS-B (KWWD)
Sun 04:58:32 PM 38.4958 -75.4882 187° South 436 502 25,800 1,778 Climbing FlightAware ADS-B (KWWD)
Sun 04:59:12 PM 38.4139 -75.5004 187° South 436 502 27,200 1,775 Climbing FlightAware ADS-B (KWWD)
Sun 04:59:43 PM 38.3515 -75.5131 192° South 444 511 27,900 968 Climbing FlightAware ADS-B (KWWD)
Sun 05:00:14 PM 38.3169 -75.5231 192° South 439 505 28,200 1,121 Climbing Washington Center
Sun 05:01:14 PM 38.2086 -75.5681 198° South 445 512 29,600 915 Climbing Washington Center
Sun 05:02:12 PM 38.0917 -75.6181 199° South 450 518 30,000 203 Climbing Washington Center
Sun 05:03:12 PM 37.9769 -75.6733 201° Southwest 455 524 30,000 295 Level Washington Center
Sun 05:04:14 PM 37.8581 -75.7233 198° South 450 518 30,600 1,512 Climbing Washington Center
Sun 05:05:15 PM 37.7372 -75.7756 199° South 450 518 33,100 1,815 Climbing Washington Center
Sun 05:06:13 PM 37.6264 -75.8225 199° South 444 511 34,200 1,475 Climbing Washington Center
Sun 05:07:13 PM 37.5139 -75.8719 199° South 438 504 36,000 893 Climbing Washington Center
Sun 05:08:14 PM 37.4094 -75.9292 204° Southwest 428 493 36,000  Level Washington Center
Sun 05:09:12 PM 37.3069 -75.9836 203° Southwest 409 471 36,000  Level Washington Center
Sun 05:10:12 PM 37.2044 -76.0378 203° Southwest 403 464 36,000  Level Washington Center
Sun 05:11:13 PM 37.1083 -76.0919 204° Southwest 398 458 36,000  Level Washington Center
Sun 05:12:13 PM 37.0144 -76.1433 204° Southwest 393 452 36,000  Level Washington Center
Sun 05:13:14 PM 36.8889 -76.1867 195° South 413 475 36,000  Level Washington Center
Sun 05:14:15 PM 36.7678 -76.1961 184° South 419 482 36,000 -50 Level Washington Center
Sun 05:15:13 PM 36.6303 -76.1950 180° South 438 504 35,900  Descending Washington Center
Sun 05:16:14 PM 36.5072 -76.1889 178° South 443 510 36,000 49 Climbing Washington Center
Sun 05:17:15 PM 36.3781 -76.1517 167° South 462 532 36,000  Level Washington Center
Sun 05:18:13 PM 36.2658 -76.0272 138° Southeast 490 564 36,000 706 Level Washington Center
Sun 05:20:05 PM 36.0850 -75.7972 134° Southeast 537 618 38,000 1,207 Climbing New York Center
Sun 05:21:07 PM 35.9619 -75.6472 135° Southeast 524 603 39,500 1,403 Climbing New York Center
Sun 05:22:09 PM 35.8592 -75.5208 135° Southeast 523 602 40,900 726 Climbing New York Center
Sun 05:23:11 PM 35.7533 -75.3953 136° Southeast 525 604 41,000 48 Climbing New York Center
Sun 05:24:14 PM 35.6450 -75.2647 136° Southeast 540 621 41,000  Level New York Center
Sun 05:25:16 PM 35.5353 -75.1331 136° Southeast 548 631 41,000  Level New York Center
Sun 05:26:18 PM 35.4253 -75.0008 136° Southeast 552 635 41,000  Level New York Center
Sun 05:27:20 PM 35.2950 -74.8456 136° Southeast 550 633 41,000  Level New York Center
Sun 05:28:22 PM 35.1881 -74.7175 136° Southeast 544 626 41,000  Level New York Center
Sun 05:29:25 PM 35.0775 -74.5889 136° Southeast 544 626 41,000  Level New York Center
Sun 05:30:27 PM 34.9675 -74.4586 136° Southeast 547 629 41,000  Level New York Center
Sun 05:31:29 PM 34.8561 -74.3286 136° Southeast 551 634 41,000  Level New York Center
Sun 05:32:31 PM 34.7203 -74.1719 137° Southeast 558 642 41,000  Level New York Center
Sun 05:33:33 PM 34.6058 -74.0394 136° Southeast 565 650 41,000  Level New York Center
Sun 05:34:36 PM 34.4933 -73.9083 136° Southeast 565 650 41,000  Level New York Center
Sun 05:35:38 PM 34.3694 -73.7928 142° Southeast 564 649 41,000  Level New York Center
Sun 05:36:40 PM 34.2333 -73.7144 155° Southeast 548 631 41,000  Level New York Center
Sun 05:43:34 PM 33.2500 -73.4000 165° South 525 604 41,000  Level New York Oceanic (ODAPS)
Sun 05:49:53 PM 32.3167 -73.1000 165° South 509 586 41,000  Level New York Oceanic (ODAPS)
Sun 05:54:24 PM 31.6500 -72.9000 165° South 521 600 41,000  Level New York Oceanic (ODAPS)
Sun 06:02:17 PM 30.5667 -72.5667 166° South 513 590 41,000  Level New York Oceanic (ODAPS)
Sun 06:05:09 PM 30.1667 -72.4500 166° South 515 593 41,000  Level New York Oceanic (ODAPS)
Sun 06:14:40 PM 28.7667 -72.0500 166° South 505 581 41,000  Level New York Oceanic (ODAPS)
Sun 06:18:16 PM 28.3167 -71.9167 166° South 513 590 41,000  Level New York Oceanic (ODAPS)
Sun 06:34:56 PM 25.8667 -71.2500 166° South 512 589 41,000  Level New York Oceanic (ODAPS)
Sun 06:37:23 PM 25.4897 -71.1397 175° South 471 542 41,000  Level Miami Center
Sun 06:38:00 PM 25.5532 -71.1631 167° South 513 590 41,000  Level FlightAware Transoceanic
Sun 06:38:23 PM 25.3506 -71.1003 166° South 491 565 41,000  Level Miami Center
Sun 06:39:00 PM 25.4149 -71.1264 167° South 513 590 41,000  Level FlightAware Transoceanic
Sun 06:39:23 PM 25.2050 -71.0658 168° South 512 589 41,000  Level Miami Center
Sun 06:40:00 PM 25.2766 -71.0897 167° South 513 590 41,000  Level FlightAware Transoceanic
Sun 06:40:23 PM 25.0619 -71.0314 168° South 524 603 41,000  Level Miami Center
Sun 06:41:00 PM 25.0000 -71.0167 175° South 512 589 41,000  Level FlightAware Transoceanic
Sun 06:41:23 PM 24.9253 -70.9556 153° Southeast 543 625 41,000  Level Miami Center
Sun 06:42:00 PM 24.8545 -71.0029 175° South 512 589 41,000  Level FlightAware Transoceanic
Sun 06:42:23 PM 24.8117 -70.8808 149° Southeast 532 612 41,000  Level Miami Center
Sun 06:43:23 PM 24.6847 -70.7911 147° Southeast 538 619 41,000  Level Miami Center
Sun 06:44:23 PM 24.5578 -70.6969 146° Southeast 543 625 41,000  Level Miami Center
Sun 06:45:23 PM 24.4306 -70.5983 145° Southeast 549 632 41,000  Level Miami Center
Sun 06:46:23 PM 24.3036 -70.5114 148° Southeast 543 625 41,000  Level Miami Center
Sun 06:47:23 PM 24.1767 -70.4247 148° Southeast 543 625 41,000  Level Miami Center
Sun 06:48:23 PM 24.0417 -70.3431 151° Southeast 537 618 41,000  Level Miami Center
Sun 06:49:23 PM 23.9156 -70.2725 153° Southeast 537 618 41,000  Level Miami Center
Sun 06:50:23 PM 23.7806 -70.1911 151° Southeast 537 618 41,000  Level Miami Center
Sun 06:51:23 PM 23.6428 -70.1008 149° Southeast 551 634 41,000  Level Miami Center
Sun 06:52:23 PM 23.5147 -70.0375 156° South 540 621 41,000  Level Miami Center
Sun 06:53:23 PM 23.3797 -69.9589 152° Southeast 540 621 41,000  Level Miami Center
Sun 06:54:23 PM 23.2511 -69.8847 152° Southeast 533 613 41,000  Level Miami Center
Sun 06:55:23 PM 23.1158 -69.8017 151° Southeast 542 624 41,000  Level Miami Center
Sun 06:56:23 PM 22.9853 -69.7300 153° Southeast 542 624 41,000  Level Miami Center
Sun 06:57:23 PM 22.8525 -69.6564 153° Southeast 548 631 41,000  Level Miami Center
Sun 06:58:23 PM 22.7194 -69.5761 151° Southeast 543 625 41,000  Level Miami Center
Sun 06:59:23 PM 22.5864 -69.4983 152° Southeast 538 619 41,000  Level Miami Center
Sun 07:00:23 PM 22.4533 -69.4228 152° Southeast 538 619 41,000  Level Miami Center
Sun 07:01:23 PM 22.3203 -69.3453 152° Southeast 543 625 41,000  Level Miami Center
Sun 07:02:23 PM 22.1853 -69.2700 153° Southeast 543 625 41,000  Level Miami Center
Sun 07:03:23 PM 22.0542 -69.1950 152° Southeast 543 625 41,000  Level Miami Center
Sun 07:04:23 PM 21.9192 -69.1200 153° Southeast 542 624 41,000  Level Miami Center
Sun 07:05:23 PM 21.7925 -69.0450 151° Southeast 536 617 41,000  Level Miami Center
Sun 07:06:23 PM 21.6508 -68.9664 153° Southeast 541 623 41,000  Level Miami Center
Sun 07:07:23 PM 21.5178 -68.8917 152° Southeast 541 623 41,000  Level Miami Center
Sun 07:08:23 PM 21.3867 -68.8150 151° Southeast 544 626 41,000  Level Miami Center
Sun 07:09:23 PM 21.2556 -68.7386 151° Southeast 542 624 41,000  Level Miami Center
Sun 07:10:23 PM 21.1144 -68.6647 154° Southeast 548 631 41,000  Level Miami Center
Sun 07:11:23 PM 20.9725 -68.5803 151° Southeast 548 631 41,000  Level Miami Center
Sun 07:12:23 PM 20.8350 -68.5044 153° Southeast 548 631 41,000  Level Miami Center
Sun 07:13:23 PM 20.7114 -68.4125 145° Southeast 548 631 41,000  Level Miami Center
Sun 07:14:23 PM 20.5933 -68.3114 141° Southeast 548 631 41,000  Level Miami Center
Sun 07:15:23 PM 20.4736 -68.2131 142° Southeast 555 639 41,000  Level Miami Center
Sun 07:16:23 PM 20.3475 -68.1172 145° Southeast 549 632 41,000  Level Miami Center
Sun 07:17:24 PM 20.2297 -68.0211 143° Southeast 544 626 41,000  Level Miami Center
Sun 07:18:18 PM 20.1167 -67.9333 144° Southeast 550 633 41,000  Level San Juan Center
Sun 07:19:18 PM 19.9833 -67.8333 145° Southeast 550 633 41,000 -645 Level San Juan Center
Sun 07:20:19 PM 19.8667 -67.7333 141° Southeast 540 621 39,700 -1,983 Descending San Juan Center
Sun 07:21:19 PM 19.7500 -67.6333 141° Southeast 550 633 37,000 -2,750 Descending San Juan Center
Sun 07:22:19 PM 19.6167 -67.5333 145° Southeast 540 621 34,200 -3,025 Descending San Juan Center
Sun 07:23:20 PM 19.5000 -67.4500 146° Southeast 540 621 30,900 -3,273 Descending San Juan Center
Sun 07:24:20 PM 19.3833 -67.3500 141° Southeast 530 610 27,600 -2,850 Descending San Juan Center
Sun 07:25:20 PM 19.2667 -67.2667 146° Southeast 510 587 25,200 -2,950 Descending San Juan Center
Sun 07:26:20 PM 19.1500 -67.1667 141° Southeast 490 564 21,700 -3,074 Descending San Juan Center
Sun 07:27:21 PM 19.0500 -67.0833 142° Southeast 460 529 19,000 -2,777 Descending San Juan Center
Sun 07:28:21 PM 18.9500 -67.0000 142° Southeast 430 495 16,100 -2,300 Descending San Juan Center
Sun 07:29:21 PM 18.9000 -66.9000 118° Southeast 400 460 14,400 -1,835 Descending San Juan Center
Sun 07:30:22 PM 18.8500 -66.8000 118° Southeast 390 449 12,400 -1,438 Descending San Juan Center
Sun 07:31:22 PM 18.8000 -66.7167 122° Southeast 360 414 11,500 -650 Descending San Juan Center
Sun 07:32:22 PM 18.7500 -66.6333 122° Southeast 320 368 11,100 -446 Descending San Juan Center
Sun 07:33:23 PM 18.7167 -66.5500 113° Southeast 300 345 10,600 -793 Descending San Juan Center
Sun 07:34:23 PM 18.6667 -66.4833 128° Southeast 300 345 9,500 -1,150 Descending San Juan Center
Sun 07:35:23 PM 18.6167 -66.4167 128° Southeast 290 334 8,300 -1,140 Descending San Juan Center
Sun 07:36:24 PM 18.5667 -66.3500 128° Southeast 280 322 7,200 -1,240 Descending San Juan Center
Sun 07:37:24 PM 18.5167 -66.3000 137° Southeast 280 322 5,800 -1,300 Descending San Juan Center
Sun 07:38:24 PM 18.4667 -66.2333 128° Southeast 240 276 4,600 -1,289 Descending San Juan Center
Sun 07:39:25 PM 18.4333 -66.2000 137° Southeast 190 219 3,200 -1,091 Descending San Juan Center
Sun 07:40:25 PM 18.4167 -66.1500 109° East 160 184 2,400 -800 Descending San Juan Center
Sun 07:41:25 PM 18.4333 -66.1000 71° East 150 173 1,600 -750 Descending San Juan Center
Sun 07:42:25 PM 18.4333 -66.0667 90° East 130 150 900 -595 Descending San Juan Center
Sun 07:43:26 PM 18.4333 -66.0333 90° East 110 127 400 -492 Descending San Juan Center

Login

Don't have an account? Register now (free) for customized features, flight alerts, and more!